Time;durP1;ratioP1;P1;durP2;ratioP2;P2;SDS_P1;SDS_P2;PMS_P1;PMS_P2;Temp;Humidity;BMP_temperature;BMP_pressure;BME280_temperature;BME280_humidity;BME280_pressure;Samples;Min_cycle;Max_cycle;Signal;HPM_P1;HPM_P2
2022/09/17 00:01:52;;;;;;;;;;;14.20;83.70;;;;;;5029581;28;19928;-72
2022/09/17 00:04:18;;;;;;;;;;;14.20;83.50;;;;;;5035593;28;20543;-73
2022/09/17 00:06:45;;;;;;;;;;;14.10;83.70;;;;;;5031092;28;19929;-72
2022/09/17 00:09:13;;;;;;;;;;;14.10;83.80;;;;;;5032301;28;19929;-72
2022/09/17 00:11:40;;;;;;;;;;;14.10;83.60;;;;;;5021516;28;19930;-73
2022/09/17 00:14:08;;;;;;;;;;;14.10;83.60;;;;;;5037273;28;19999;-72
2022/09/17 00:16:36;;;;;;;;;;;14.10;83.60;;;;;;5017843;28;19940;-72
2022/09/17 00:19:04;;;;;;;;;;;14.10;84.40;;;;;;5005221;28;20003;-72
2022/09/17 00:21:31;;;;;;;;;;;14.10;83.60;;;;;;5008505;28;19930;-72
2022/09/17 00:23:58;;;;;;;;;;;14.00;83.60;;;;;;5010141;28;19957;-72
2022/09/17 00:26:27;;;;;;;;;;;14.00;83.40;;;;;;5008737;28;19952;-72
2022/09/17 00:28:54;;;;;;;;;;;14.00;83.60;;;;;;5004352;28;19929;-72
2022/09/17 00:31:21;;;;;;;;;;;14.00;83.40;;;;;;5005279;28;19937;-72
2022/09/17 00:33:48;;;;;;;;;;;13.90;83.40;;;;;;5004433;28;20678;-72
2022/09/17 00:36:14;;;;;;;;;;;13.90;83.60;;;;;;5007907;28;19933;-71
2022/09/17 00:38:42;;;;;;;;;;;13.90;83.80;;;;;;5005992;28;19933;-72
2022/09/17 00:41:08;;;;;;;;;;;13.90;83.80;;;;;;5005020;28;19988;-72
2022/09/17 00:43:38;;;;;;;;;;;13.90;83.60;;;;;;5005973;28;19933;-72
2022/09/17 00:46:06;;;;;;;;;;;13.80;83.60;;;;;;5004777;28;19937;-72
2022/09/17 00:48:33;;;;;;;;;;;13.80;83.50;;;;;;5005655;28;20455;-72
2022/09/17 00:51:01;;;;;;;;;;;13.80;83.30;;;;;;5003697;28;19984;-72
2022/09/17 00:53:29;;;;;;;;;;;13.80;83.40;;;;;;5005486;28;19955;-72
2022/09/17 00:55:58;;;;;;;;;;;13.80;83.30;;;;;;5003376;28;19930;-72
2022/09/17 00:58:25;;;;;;;;;;;13.80;83.50;;;;;;5004799;28;19984;-72
2022/09/17 01:00:53;;;;;;;;;;;13.80;83.60;;;;;;5009119;28;19929;-72
2022/09/17 01:03:20;;;;;;;;;;;13.80;83.50;;;;;;5006500;28;19930;-72
2022/09/17 01:05:49;;;;;;;;;;;13.80;83.50;;;;;;5008695;28;19932;-72
2022/09/17 01:08:19;;;;;;;;;;;13.80;84.30;;;;;;5012350;28;19925;-71
2022/09/17 01:11:06;;;;;;;;;;;13.80;83.60;;;;;;5006214;28;20488;-72
2022/09/17 01:13:37;;;;;;;;;;;13.70;83.60;;;;;;5011736;28;19933;-72
2022/09/17 01:16:07;;;;;;;;;;;13.80;83.70;;;;;;5009892;28;19952;-72
2022/09/17 01:18:41;;;;;;;;;;;13.70;83.80;;;;;;5003300;28;19933;-72
2022/09/17 01:21:26;;;;;;;;;;;13.70;83.70;;;;;;5002781;28;19929;-72
2022/09/17 01:24:16;;;;;;;;;;;13.60;83.60;;;;;;5004054;28;19975;-72
2022/09/17 01:26:50;;;;;;;;;;;13.70;83.90;;;;;;5004085;28;19998;-72
2022/09/17 01:29:24;;;;;;;;;;;13.60;83.70;;;;;;5000099;28;19940;-72
2022/09/17 01:31:53;;;;;;;;;;;13.60;83.90;;;;;;5003410;28;20491;-72
2022/09/17 01:34:24;;;;;;;;;;;13.60;83.80;;;;;;5005679;28;20297;-71
2022/09/17 01:37:00;;;;;;;;;;;13.70;83.80;;;;;;5009002;28;19926;-72
2022/09/17 01:39:33;;;;;;;;;;;13.60;83.90;;;;;;5003100;28;19937;-72
2022/09/17 01:42:04;;;;;;;;;;;13.60;84.00;;;;;;5006150;28;19933;-72
2022/09/17 01:44:35;;;;;;;;;;;13.60;84.00;;;;;;5011001;28;19972;-72
2022/09/17 01:47:04;;;;;;;;;;;13.60;83.90;;;;;;5021943;28;19929;-72
2022/09/17 01:49:32;;;;;;;;;;;13.50;83.60;;;;;;5023336;28;19995;-72
2022/09/17 01:52:00;;;;;;;;;;;13.60;83.80;;;;;;5020469;28;19952;-72
2022/09/17 01:54:28;;;;;;;;;;;13.50;84.00;;;;;;5025525;28;19933;-71
2022/09/17 01:56:58;;;;;;;;;;;13.50;84.20;;;;;;5030443;28;19929;-72
2022/09/17 01:59:27;;;;;;;;;;;13.50;83.90;;;;;;5022574;28;19929;-72
2022/09/17 02:01:56;;;;;;;;;;;13.50;84.00;;;;;;5021775;28;20007;-72
2022/09/17 02:04:26;;;;;;;;;;;13.50;83.90;;;;;;5020928;28;19929;-72
2022/09/17 02:06:55;;;;;;;;;;;13.50;83.80;;;;;;5018079;28;19935;-72
2022/09/17 02:09:22;;;;;;;;;;;13.50;83.90;;;;;;5019183;28;19929;-72
2022/09/17 02:11:51;;;;;;;;;;;13.40;84.00;;;;;;5017214;28;19932;-72
2022/09/17 02:14:20;;;;;;;;;;;13.40;84.00;;;;;;5020705;28;19929;-72
2022/09/17 02:16:49;;;;;;;;;;;13.40;84.20;;;;;;5019011;28;19940;-72
2022/09/17 02:19:18;;;;;;;;;;;13.40;83.80;;;;;;4997788;28;20468;-71
2022/09/17 02:21:48;;;;;;;;;;;13.40;84.20;;;;;;5008364;28;19936;-72
2022/09/17 02:24:18;;;;;;;;;;;13.40;84.20;;;;;;5007822;28;19932;-71
2022/09/17 02:26:45;;;;;;;;;;;13.40;84.20;;;;;;5006543;28;20452;-73
2022/09/17 02:29:15;;;;;;;;;;;13.30;84.20;;;;;;5005098;28;19929;-72
2022/09/17 02:31:42;;;;;;;;;;;13.40;84.30;;;;;;5003728;28;19929;-72
2022/09/17 02:34:09;;;;;;;;;;;13.30;84.10;;;;;;5006611;28;19937;-72
2022/09/17 02:36:36;;;;;;;;;;;13.30;84.30;;;;;;5005067;28;19952;-72
2022/09/17 02:39:04;;;;;;;;;;;13.30;84.50;;;;;;5005082;28;19932;-72
2022/09/17 02:41:36;;;;;;;;;;;13.20;84.40;;;;;;5004326;28;19951;-72
2022/09/17 02:44:07;;;;;;;;;;;13.20;84.30;;;;;;5004257;28;20003;-72
2022/09/17 02:46:42;;;;;;;;;;;13.20;84.40;;;;;;5004626;28;21367;-72
2022/09/17 02:49:14;;;;;;;;;;;13.20;84.30;;;;;;5000710;28;19937;-72
2022/09/17 02:51:44;;;;;;;;;;;13.20;84.50;;;;;;5001147;28;19938;-73
2022/09/17 02:54:16;;;;;;;;;;;13.20;84.40;;;;;;4999759;28;19929;-72
2022/09/17 02:56:45;;;;;;;;;;;13.10;84.30;;;;;;5001631;28;19925;-72
2022/09/17 02:59:17;;;;;;;;;;;13.10;84.30;;;;;;5004099;28;20390;-73
2022/09/17 03:01:46;;;;;;;;;;;13.10;84.40;;;;;;5008216;28;20362;-72
2022/09/17 03:04:15;;;;;;;;;;;13.10;84.50;;;;;;5006791;28;20519;-72
2022/09/17 03:06:42;;;;;;;;;;;13.10;84.50;;;;;;5005582;28;19937;-72
2022/09/17 03:09:09;;;;;;;;;;;13.10;84.50;;;;;;5012018;28;19937;-72
2022/09/17 03:11:37;;;;;;;;;;;13.10;84.50;;;;;;5006874;28;19952;-72
2022/09/17 03:14:04;;;;;;;;;;;13.00;84.50;;;;;;5007432;28;19930;-73
2022/09/17 03:16:31;;;;;;;;;;;13.00;84.80;;;;;;5011506;28;20447;-72
2022/09/17 03:18:57;;;;;;;;;;;12.90;84.50;;;;;;5005835;28;20004;-72
2022/09/17 03:21:24;;;;;;;;;;;13.00;84.60;;;;;;5012370;28;19929;-72
2022/09/17 03:23:51;;;;;;;;;;;12.90;84.60;;;;;;5008653;28;20407;-72
2022/09/17 03:26:18;;;;;;;;;;;13.00;84.70;;;;;;5004035;28;20044;-72
2022/09/17 03:28:46;;;;;;;;;;;12.90;84.70;;;;;;5009205;28;19930;-72
2022/09/17 03:31:12;;;;;;;;;;;12.90;84.70;;;;;;5017681;28;20308;-72
2022/09/17 03:33:39;;;;;;;;;;;12.90;84.80;;;;;;5036544;28;20019;-72
2022/09/17 03:36:06;;;;;;;;;;;12.90;84.60;;;;;;5027359;28;20011;-71
2022/09/17 03:38:34;;;;;;;;;;;12.80;84.60;;;;;;5032690;28;19961;-72
2022/09/17 03:41:01;;;;;;;;;;;12.80;84.40;;;;;;5031724;28;19936;-72
2022/09/17 03:43:28;;;;;;;;;;;12.80;84.40;;;;;;5032939;28;19937;-72
2022/09/17 03:45:56;;;;;;;;;;;12.80;84.60;;;;;;5023649;28;19929;-72
2022/09/17 03:48:23;;;;;;;;;;;12.70;84.30;;;;;;5032614;28;20621;-72
2022/09/17 03:50:50;;;;;;;;;;;12.70;84.20;;;;;;5029651;28;19933;-72
2022/09/17 03:53:16;;;;;;;;;;;12.70;84.40;;;;;;5025234;28;20578;-72
2022/09/17 03:55:43;;;;;;;;;;;12.70;84.60;;;;;;5025829;28;20003;-72
2022/09/17 03:58:09;;;;;;;;;;;12.70;84.60;;;;;;5026686;28;19952;-72
2022/09/17 04:00:36;;;;;;;;;;;12.70;84.80;;;;;;5029825;28;19929;-72
2022/09/17 04:03:04;;;;;;;;;;;12.70;84.80;;;;;;5032991;28;20023;-72
2022/09/17 04:05:31;;;;;;;;;;;12.60;84.80;;;;;;5026840;28;19955;-72
2022/09/17 04:07:57;;;;;;;;;;;12.60;84.90;;;;;;5029677;28;19941;-72
2022/09/17 04:10:24;;;;;;;;;;;12.60;84.70;;;;;;5025497;28;19935;-72
2022/09/17 04:12:50;;;;;;;;;;;12.60;84.60;;;;;;5034755;28;20319;-73
2022/09/17 04:15:17;;;;;;;;;;;12.60;84.80;;;;;;5031802;28;20010;-72
2022/09/17 04:17:43;;;;;;;;;;;12.50;84.60;;;;;;5008026;28;19941;-72
2022/09/17 04:20:11;;;;;;;;;;;12.50;84.80;;;;;;5007447;28;19935;-72
2022/09/17 04:22:38;;;;;;;;;;;12.50;84.80;;;;;;5005755;28;19929;-72
2022/09/17 04:25:05;;;;;;;;;;;12.50;84.90;;;;;;5004796;28;20341;-72
2022/09/17 04:27:31;;;;;;;;;;;12.50;84.90;;;;;;5004451;28;19930;-72
2022/09/17 04:29:58;;;;;;;;;;;12.50;85.60;;;;;;5009303;28;19929;-72
2022/09/17 04:32:24;;;;;;;;;;;12.50;85.00;;;;;;5004907;28;19929;-72
2022/09/17 04:34:51;;;;;;;;;;;12.40;84.90;;;;;;5009528;28;19933;-72
2022/09/17 04:37:19;;;;;;;;;;;12.40;84.90;;;;;;5004474;28;19987;-72
2022/09/17 04:39:45;;;;;;;;;;;12.40;84.90;;;;;;5005862;28;19929;-73
2022/09/17 04:42:12;;;;;;;;;;;12.40;84.80;;;;;;5004999;28;19933;-73
2022/09/17 04:44:38;;;;;;;;;;;12.40;85.00;;;;;;5009164;28;19926;-72
2022/09/17 04:47:05;;;;;;;;;;;12.40;85.00;;;;;;5006427;28;20447;-72
2022/09/17 04:49:31;;;;;;;;;;;12.30;84.90;;;;;;5003963;28;19929;-72
2022/09/17 04:51:58;;;;;;;;;;;12.30;85.00;;;;;;5010930;28;19928;-72
2022/09/17 04:54:26;;;;;;;;;;;12.30;84.90;;;;;;5003887;28;19930;-72
2022/09/17 04:56:52;;;;;;;;;;;12.30;85.20;;;;;;5007346;28;19936;-72
2022/09/17 04:59:19;;;;;;;;;;;12.30;85.00;;;;;;5004582;28;20389;-73
2022/09/17 05:01:45;;;;;;;;;;;12.30;84.80;;;;;;5003498;28;19996;-72
2022/09/17 05:04:12;;;;;;;;;;;12.20;84.90;;;;;;5009748;28;19929;-72
2022/09/17 05:06:38;;;;;;;;;;;12.20;85.00;;;;;;5002595;28;20027;-72
2022/09/17 05:09:05;;;;;;;;;;;12.20;84.80;;;;;;5008431;28;20057;-72
2022/09/17 05:11:33;;;;;;;;;;;12.20;85.00;;;;;;5010882;28;19925;-73
2022/09/17 05:13:59;;;;;;;;;;;12.20;85.10;;;;;;5014476;28;20292;-72
2022/09/17 05:16:26;;;;;;;;;;;12.20;85.10;;;;;;5012284;28;20332;-73
2022/09/17 05:18:53;;;;;;;;;;;12.20;85.20;;;;;;5007111;28;19930;-73
2022/09/17 05:21:19;;;;;;;;;;;12.10;85.10;;;;;;5002822;28;20468;-72
2022/09/17 05:23:46;;;;;;;;;;;12.10;85.10;;;;;;5012796;28;20021;-72
2022/09/17 05:26:13;;;;;;;;;;;12.20;85.00;;;;;;5003135;28;19925;-72
2022/09/17 05:28:41;;;;;;;;;;;12.10;85.00;;;;;;4999622;28;19933;-72
2022/09/17 05:31:08;;;;;;;;;;;12.10;85.10;;;;;;5007681;28;19941;-72
2022/09/17 05:33:34;;;;;;;;;;;12.10;85.10;;;;;;5006647;28;19929;-73
2022/09/17 05:36:01;;;;;;;;;;;12.10;85.00;;;;;;5000894;28;19960;-72
2022/09/17 05:38:28;;;;;;;;;;;12.10;84.90;;;;;;5003722;28;19933;-73
2022/09/17 05:40:54;;;;;;;;;;;12.10;85.20;;;;;;5005337;28;20049;-73
2022/09/17 05:43:21;;;;;;;;;;;12.10;85.10;;;;;;5013145;28;19937;-72
2022/09/17 05:45:49;;;;;;;;;;;12.00;85.00;;;;;;5007507;28;20796;-73
2022/09/17 05:48:16;;;;;;;;;;;12.10;85.00;;;;;;5008276;28;20044;-72
2022/09/17 05:50:42;;;;;;;;;;;12.10;85.00;;;;;;5008594;28;20337;-73
2022/09/17 05:53:11;;;;;;;;;;;12.10;85.00;;;;;;5008609;28;19933;-71
2022/09/17 05:55:37;;;;;;;;;;;12.10;85.10;;;;;;5002117;28;19937;-73
2022/09/17 05:58:11;;;;;;;;;;;12.10;85.10;;;;;;5007247;28;19997;-72
2022/09/17 06:00:38;;;;;;;;;;;12.00;85.10;;;;;;5010051;28;19929;-73
2022/09/17 06:03:06;;;;;;;;;;;12.00;85.10;;;;;;5024920;28;19936;-73
2022/09/17 06:05:32;;;;;;;;;;;12.00;85.20;;;;;;5021684;28;19933;-73
2022/09/17 06:07:59;;;;;;;;;;;12.00;85.30;;;;;;5021876;28;19933;-72
2022/09/17 06:10:25;;;;;;;;;;;12.00;85.30;;;;;;5022903;28;19933;-72
2022/09/17 06:12:55;;;;;;;;;;;12.00;85.40;;;;;;5024840;28;19975;-72
2022/09/17 06:15:21;;;;;;;;;;;12.00;85.60;;;;;;5024994;28;20032;-72
2022/09/17 06:17:48;;;;;;;;;;;12.00;85.70;;;;;;5027478;28;19932;-72
2022/09/17 06:20:16;;;;;;;;;;;12.00;85.80;;;;;;5016538;28;19980;-72
2022/09/17 06:22:42;;;;;;;;;;;12.00;86.00;;;;;;5023703;28;19937;-72
2022/09/17 06:25:09;;;;;;;;;;;12.00;86.40;;;;;;5021028;28;20427;-72
2022/09/17 06:27:36;;;;;;;;;;;12.00;86.40;;;;;;5028210;28;19929;-72
2022/09/17 06:30:02;;;;;;;;;;;12.00;86.60;;;;;;5027347;28;19976;-72
2022/09/17 06:32:29;;;;;;;;;;;12.00;86.60;;;;;;5029367;28;19982;-72
2022/09/17 06:34:56;;;;;;;;;;;12.00;86.80;;;;;;5025219;28;20768;-72
2022/09/17 06:37:28;;;;;;;;;;;11.90;86.80;;;;;;5027087;28;19931;-72
2022/09/17 06:39:55;;;;;;;;;;;11.90;87.00;;;;;;5022507;28;19969;-72
2022/09/17 06:42:22;;;;;;;;;;;11.90;87.20;;;;;;5021951;28;19936;-72
2022/09/17 06:44:48;;;;;;;;;;;11.90;87.10;;;;;;5027437;28;20533;-72
2022/09/17 06:47:15;;;;;;;;;;;11.90;87.50;;;;;;5021178;28;19928;-71
2022/09/17 06:49:41;;;;;;;;;;;11.90;87.40;;;;;;5019485;28;19960;-72
2022/09/17 06:52:08;;;;;;;;;;;11.90;87.50;;;;;;5021966;28;19929;-72
2022/09/17 06:54:35;;;;;;;;;;;11.80;87.70;;;;;;5034167;28;19976;-72
2022/09/17 06:57:02;;;;;;;;;;;11.90;87.80;;;;;;5023965;28;19952;-72
2022/09/17 06:59:28;;;;;;;;;;;11.80;87.70;;;;;;5027739;28;19967;-73
2022/09/17 07:01:55;;;;;;;;;;;11.80;87.90;;;;;;5026992;28;19932;-72
2022/09/17 07:04:22;;;;;;;;;;;11.80;88.00;;;;;;5025105;28;19925;-71
2022/09/17 07:06:48;;;;;;;;;;;11.80;88.10;;;;;;5033641;28;19932;-72
2022/09/17 07:09:15;;;;;;;;;;;11.80;88.20;;;;;;5024029;28;19936;-71
2022/09/17 07:11:43;;;;;;;;;;;11.80;88.10;;;;;;5025908;28;19933;-73
2022/09/17 07:14:09;;;;;;;;;;;11.80;88.50;;;;;;5019505;28;19930;-72
2022/09/17 07:16:36;;;;;;;;;;;11.80;88.30;;;;;;5018646;28;20483;-72
2022/09/17 07:19:03;;;;;;;;;;;11.80;88.60;;;;;;5010346;28;19937;-71
2022/09/17 07:21:29;;;;;;;;;;;11.80;88.70;;;;;;5009407;28;19944;-72
2022/09/17 07:23:56;;;;;;;;;;;11.80;88.50;;;;;;5011328;28;19980;-72
2022/09/17 07:26:22;;;;;;;;;;;11.80;88.60;;;;;;5004762;28;19936;-72
2022/09/17 07:28:50;;;;;;;;;;;11.80;88.70;;;;;;5008118;28;19929;-72
2022/09/17 07:31:17;;;;;;;;;;;11.80;88.80;;;;;;5008531;28;19940;-72
2022/09/17 07:33:44;;;;;;;;;;;11.80;88.80;;;;;;5009402;28;19952;-72
2022/09/17 07:36:12;;;;;;;;;;;11.80;89.00;;;;;;5006503;28;19940;-72
2022/09/17 07:38:39;;;;;;;;;;;11.80;89.00;;;;;;5007988;28;19942;-72
2022/09/17 07:41:11;;;;;;;;;;;11.80;89.20;;;;;;5003935;28;20008;-72
2022/09/17 07:43:37;;;;;;;;;;;11.80;89.20;;;;;;5009184;28;19937;-72
2022/09/17 07:46:06;;;;;;;;;;;11.80;89.10;;;;;;5008043;28;20367;-72
2022/09/17 07:48:33;;;;;;;;;;;11.80;89.10;;;;;;5005087;28;19933;-72
2022/09/17 07:50:59;;;;;;;;;;;11.80;89.10;;;;;;5004829;28;19936;-72
2022/09/17 07:53:26;;;;;;;;;;;11.80;89.30;;;;;;5003803;28;19929;-72
2022/09/17 07:55:53;;;;;;;;;;;11.80;89.20;;;;;;5004912;28;20493;-72
2022/09/17 07:58:19;;;;;;;;;;;11.80;89.20;;;;;;5002489;28;20052;-71
2022/09/17 08:00:47;;;;;;;;;;;11.90;89.40;;;;;;5014085;28;19929;-72
2022/09/17 08:03:15;;;;;;;;;;;11.90;89.40;;;;;;5031399;28;19929;-71
2022/09/17 08:05:41;;;;;;;;;;;11.90;89.30;;;;;;5021457;28;19940;-71
2022/09/17 08:08:08;;;;;;;;;;;11.90;89.30;;;;;;5020099;28;19930;-72
2022/09/17 08:10:34;;;;;;;;;;;11.90;89.30;;;;;;5019121;28;19933;-71
2022/09/17 08:13:01;;;;;;;;;;;11.90;89.20;;;;;;5024489;28;19933;-71
2022/09/17 08:15:27;;;;;;;;;;;11.90;89.30;;;;;;5016490;28;20798;-71
2022/09/17 08:17:54;;;;;;;;;;;11.90;89.20;;;;;;5014103;28;19929;-71
2022/09/17 08:20:24;;;;;;;;;;;12.00;89.20;;;;;;5015677;28;20719;-71
2022/09/17 08:22:57;;;;;;;;;;;12.00;89.30;;;;;;5005548;28;19940;-72
2022/09/17 08:25:24;;;;;;;;;;;12.00;89.30;;;;;;5002013;28;19936;-71
2022/09/17 08:27:52;;;;;;;;;;;12.00;89.30;;;;;;5007209;28;20036;-71
2022/09/17 08:30:19;;;;;;;;;;;12.00;89.30;;;;;;5006135;28;19941;-72
2022/09/17 08:32:45;;;;;;;;;;;12.10;89.30;;;;;;5011707;28;19934;-71
2022/09/17 08:35:12;;;;;;;;;;;12.10;89.20;;;;;;5005233;28;19937;-71
2022/09/17 08:37:40;;;;;;;;;;;12.20;89.20;;;;;;5010445;28;19936;-71
2022/09/17 08:40:07;;;;;;;;;;;12.20;89.10;;;;;;5001560;28;20381;-72
2022/09/17 08:42:37;;;;;;;;;;;12.20;88.90;;;;;;5013337;28;19933;-71
2022/09/17 08:45:04;;;;;;;;;;;12.20;88.80;;;;;;5014124;28;20385;-71
2022/09/17 08:47:35;;;;;;;;;;;12.30;88.80;;;;;;5003522;28;19937;-71
2022/09/17 08:50:03;;;;;;;;;;;12.30;88.60;;;;;;5004210;28;19930;-70
2022/09/17 08:52:48;;;;;;;;;;;12.40;88.50;;;;;;5005381;28;19941;-72
2022/09/17 08:55:23;;;;;;;;;;;12.40;88.40;;;;;;5006155;28;19937;-70
2022/09/17 08:57:55;;;;;;;;;;;12.40;88.90;;;;;;5011553;28;19952;-71
2022/09/17 09:00:22;;;;;;;;;;;12.40;87.80;;;;;;5013907;28;19933;-70
2022/09/17 09:02:56;;;;;;;;;;;12.50;87.70;;;;;;5025992;28;19936;-71
2022/09/17 09:05:22;;;;;;;;;;;12.50;87.20;;;;;;5024812;28;19937;-71
2022/09/17 09:07:51;;;;;;;;;;;12.50;86.80;;;;;;5024432;28;19940;-71
2022/09/17 09:10:22;;;;;;;;;;;12.60;86.70;;;;;;5031143;28;19973;-71
2022/09/17 09:12:49;;;;;;;;;;;12.60;86.50;;;;;;5025412;28;19935;-70
2022/09/17 09:15:23;;;;;;;;;;;12.60;86.30;;;;;;5028670;28;19936;-70
2022/09/17 09:17:51;;;;;;;;;;;12.60;86.40;;;;;;5026749;28;19956;-71
2022/09/17 09:20:19;;;;;;;;;;;12.70;86.20;;;;;;5025783;28;20295;-71
2022/09/17 09:22:47;;;;;;;;;;;12.70;86.00;;;;;;5025460;28;19934;-70
2022/09/17 09:25:19;;;;;;;;;;;12.80;85.70;;;;;;5018296;28;19930;-68
2022/09/17 09:27:49;;;;;;;;;;;12.80;85.40;;;;;;5019473;28;19999;-72
2022/09/17 09:30:17;;;;;;;;;;;12.80;84.90;;;;;;5032264;28;19944;-70
2022/09/17 09:32:48;;;;;;;;;;;12.90;84.50;;;;;;5025255;28;19929;-70
2022/09/17 09:35:17;;;;;;;;;;;13.00;84.20;;;;;;5028179;28;19932;-71
2022/09/17 09:37:44;;;;;;;;;;;13.00;84.10;;;;;;5025739;28;20479;-71
2022/09/17 09:40:19;;;;;;;;;;;13.10;83.90;;;;;;5020208;28;19941;-71
2022/09/17 09:42:48;;;;;;;;;;;13.20;83.80;;;;;;5031684;28;19929;-71
2022/09/17 09:45:16;;;;;;;;;;;13.20;83.80;;;;;;5027636;28;19936;-70
2022/09/17 09:47:50;;;;;;;;;;;13.30;83.30;;;;;;5026382;28;19929;-71
2022/09/17 09:50:37;;;;;;;;;;;13.30;82.90;;;;;;5020469;28;19929;-69
2022/09/17 09:53:09;;;;;;;;;;;13.30;82.80;;;;;;5018858;28;19929;-70
2022/09/17 09:55:42;;;;;;;;;;;13.40;82.90;;;;;;5020580;28;19933;-69
2022/09/17 09:58:14;;;;;;;;;;;13.30;83.20;;;;;;5017290;28;19929;-70
2022/09/17 10:00:42;;;;;;;;;;;13.40;83.50;;;;;;5023592;28;19929;-70
2022/09/17 10:03:12;;;;;;;;;;;13.40;83.30;;;;;;5026097;28;19929;-70
2022/09/17 10:05:39;;;;;;;;;;;13.40;83.10;;;;;;5032531;28;19928;-71
2022/09/17 10:08:12;;;;;;;;;;;13.40;83.10;;;;;;5027850;28;19956;-71
2022/09/17 10:10:53;;;;;;;;;;;13.50;83.30;;;;;;5033484;28;19933;-71
2022/09/17 10:13:21;;;;;;;;;;;13.50;82.90;;;;;;5031140;28;20078;-72
2022/09/17 10:15:47;;;;;;;;;;;13.60;82.70;;;;;;5031879;28;19990;-72
2022/09/17 10:18:17;;;;;;;;;;;13.60;82.30;;;;;;5028757;28;19932;-70
2022/09/17 10:20:51;;;;;;;;;;;13.60;82.00;;;;;;5028265;28;19940;-72
2022/09/17 10:23:17;;;;;;;;;;;13.60;81.70;;;;;;5025635;28;19925;-73
2022/09/17 10:25:44;;;;;;;;;;;13.70;81.60;;;;;;5022236;28;19936;-73
2022/09/17 10:28:25;;;;;;;;;;;13.70;81.90;;;;;;5027800;28;19929;-71
2022/09/17 10:30:55;;;;;;;;;;;13.70;82.50;;;;;;5023914;28;20023;-72
2022/09/17 10:33:23;;;;;;;;;;;13.80;82.90;;;;;;5028495;28;19983;-71
2022/09/17 10:35:57;;;;;;;;;;;13.80;83.20;;;;;;5022964;28;19925;-71
2022/09/17 10:38:31;;;;;;;;;;;13.90;83.30;;;;;;5026214;28;19972;-72
2022/09/17 10:41:15;;;;;;;;;;;13.90;83.60;;;;;;5025036;28;19929;-72
2022/09/17 10:43:43;;;;;;;;;;;13.90;83.70;;;;;;5022371;28;20410;-70
2022/09/17 10:46:11;;;;;;;;;;;13.90;83.70;;;;;;5029887;28;19929;-71
2022/09/17 10:48:41;;;;;;;;;;;13.90;83.70;;;;;;5024478;28;19929;-71
2022/09/17 10:51:09;;;;;;;;;;;13.90;83.50;;;;;;5023929;28;19952;-70
2022/09/17 10:53:52;;;;;;;;;;;14.00;83.40;;;;;;5024024;28;20015;-71
2022/09/17 10:56:22;;;;;;;;;;;14.00;83.40;;;;;;5023167;28;20724;-71
2022/09/17 10:58:56;;;;;;;;;;;14.00;83.10;;;;;;5026525;28;19932;-73
2022/09/17 11:01:27;;;;;;;;;;;14.10;83.20;;;;;;5024982;28;19929;-70
2022/09/17 11:04:07;;;;;;;;;;;14.10;83.30;;;;;;5024264;28;19944;-71
2022/09/17 11:06:42;;;;;;;;;;;14.10;83.10;;;;;;5027114;28;20455;-72
2022/09/17 11:09:14;;;;;;;;;;;14.10;83.00;;;;;;5026826;28;19929;-71
2022/09/17 11:11:45;;;;;;;;;;;14.10;82.70;;;;;;5024949;28;19951;-72
2022/09/17 11:14:19;;;;;;;;;;;14.10;82.60;;;;;;5024176;28;19928;-72
2022/09/17 11:16:50;;;;;;;;;;;14.10;82.70;;;;;;5030346;28;20456;-71
2022/09/17 11:19:22;;;;;;;;;;;14.10;82.60;;;;;;5030843;28;19929;-72
2022/09/17 11:21:50;;;;;;;;;;;14.10;82.60;;;;;;5025000;28;20155;-71
2022/09/17 11:24:31;;;;;;;;;;;14.10;82.90;;;;;;5025488;28;20297;-72
2022/09/17 11:27:03;;;;;;;;;;;14.10;83.00;;;;;;5023029;28;19929;-72
2022/09/17 11:29:40;;;;;;;;;;;14.10;83.00;;;;;;5029123;28;19932;-71
2022/09/17 11:32:11;;;;;;;;;;;14.10;82.90;;;;;;5027313;28;19929;-72
2022/09/17 11:34:38;;;;;;;;;;;14.10;82.80;;;;;;5024234;28;19940;-71
2022/09/17 11:37:09;;;;;;;;;;;14.10;82.60;;;;;;5024400;28;19929;-70
2022/09/17 11:39:40;;;;;;;;;;;14.10;82.60;;;;;;5030093;28;19965;-71
2022/09/17 11:42:10;;;;;;;;;;;14.10;82.90;;;;;;5027931;28;19929;-71
2022/09/17 11:44:40;;;;;;;;;;;14.00;83.40;;;;;;5034321;28;19936;-72
2022/09/17 11:47:08;;;;;;;;;;;14.10;83.70;;;;;;5028959;28;19933;-71
2022/09/17 11:49:39;;;;;;;;;;;14.10;83.70;;;;;;5019918;28;19937;-69
2022/09/17 11:52:06;;;;;;;;;;;14.10;83.70;;;;;;5020424;28;19983;-70
2022/09/17 11:54:35;;;;;;;;;;;14.10;84.20;;;;;;5029269;28;20332;-70
2022/09/17 11:57:06;;;;;;;;;;;14.00;84.50;;;;;;5023959;28;19941;-69
2022/09/17 11:59:35;;;;;;;;;;;14.00;84.90;;;;;;5026985;28;19929;-71
2022/09/17 12:02:05;;;;;;;;;;;14.00;85.20;;;;;;5010080;28;19933;-69
2022/09/17 12:04:36;;;;;;;;;;;14.00;86.00;;;;;;5010165;28;20024;-70
2022/09/17 12:07:11;;;;;;;;;;;14.00;86.30;;;;;;5007740;28;20526;-70
2022/09/17 12:09:38;;;;;;;;;;;14.00;86.40;;;;;;5011140;28;19930;-70
2022/09/17 12:12:07;;;;;;;;;;;14.00;86.40;;;;;;5008045;28;19936;-70
2022/09/17 12:14:38;;;;;;;;;;;14.00;86.50;;;;;;5002608;28;19934;-70
2022/09/17 12:17:11;;;;;;;;;;;14.00;86.50;;;;;;5009658;28;19929;-71
2022/09/17 12:19:41;;;;;;;;;;;14.00;86.40;;;;;;5004891;28;19950;-70
2022/09/17 12:22:09;;;;;;;;;;;14.00;86.50;;;;;;5008037;28;19924;-71
2022/09/17 12:24:36;;;;;;;;;;;14.00;86.60;;;;;;5005862;28;19936;-67
2022/09/17 12:27:10;;;;;;;;;;;14.00;86.60;;;;;;5002327;28;19999;-70
2022/09/17 12:29:45;;;;;;;;;;;14.00;86.80;;;;;;5006914;28;19929;-71
2022/09/17 12:32:23;;;;;;;;;;;14.00;86.90;;;;;;5004675;28;20321;-70
2022/09/17 12:34:56;;;;;;;;;;;14.10;87.00;;;;;;5003400;28;20649;-71
2022/09/17 12:37:26;;;;;;;;;;;14.10;86.80;;;;;;5005756;28;19933;-71
2022/09/17 12:40:06;;;;;;;;;;;14.10;86.60;;;;;;4997190;28;19984;-71
2022/09/17 12:42:54;;;;;;;;;;;14.10;86.40;;;;;;5008033;28;19936;-73
2022/09/17 12:45:30;;;;;;;;;;;14.20;86.40;;;;;;5002508;28;19984;-70
2022/09/17 12:48:06;;;;;;;;;;;14.20;86.40;;;;;;5004785;28;20312;-71
2022/09/17 12:50:41;;;;;;;;;;;14.20;86.20;;;;;;5003234;28;19929;-71
2022/09/17 12:53:14;;;;;;;;;;;14.20;86.10;;;;;;5000025;28;20357;-70
2022/09/17 12:55:48;;;;;;;;;;;14.20;86.20;;;;;;4999307;28;19933;-70
2022/09/17 12:58:23;;;;;;;;;;;14.20;86.20;;;;;;4997333;28;19991;-72
2022/09/17 13:00:52;;;;;;;;;;;14.30;86.30;;;;;;5010828;28;19933;-70
2022/09/17 13:03:22;;;;;;;;;;;14.20;86.30;;;;;;5025856;28;20381;-72
2022/09/17 13:05:59;;;;;;;;;;;14.20;86.30;;;;;;5033732;28;19929;-71
2022/09/17 13:08:40;;;;;;;;;;;14.20;86.30;;;;;;5024319;28;19964;-71
2022/09/17 13:11:31;;;;;;;;;;;14.20;86.20;;;;;;5033950;28;19935;-70
2022/09/17 13:14:01;;;;;;;;;;;14.30;86.00;;;;;;5016106;28;19936;-71
2022/09/17 13:16:33;;;;;;;;;;;14.30;85.80;;;;;;5025188;28;19936;-72
2022/09/17 13:19:04;;;;;;;;;;;14.30;85.90;;;;;;5033737;28;19936;-69
2022/09/17 13:21:33;;;;;;;;;;;14.20;85.60;;;;;;5029815;28;19929;-71
2022/09/17 13:23:59;;;;;;;;;;;14.30;85.60;;;;;;5027956;28;19976;-71
2022/09/17 13:26:33;;;;;;;;;;;14.30;85.50;;;;;;5025813;28;19925;-70
2022/09/17 13:29:00;;;;;;;;;;;14.30;85.50;;;;;;5024883;28;19936;-70
2022/09/17 13:31:43;;;;;;;;;;;14.40;85.40;;;;;;5027664;28;19933;-73
2022/09/17 13:34:25;;;;;;;;;;;14.40;85.10;;;;;;5026905;28;20496;-72
2022/09/17 13:36:53;;;;;;;;;;;14.40;84.60;;;;;;5020585;28;20024;-71
2022/09/17 13:39:35;;;;;;;;;;;14.50;84.40;;;;;;5025514;28;19978;-71
2022/09/17 13:42:04;;;;;;;;;;;14.60;84.10;;;;;;5021262;28;19928;-71
2022/09/17 13:44:33;;;;;;;;;;;14.70;83.60;;;;;;5024107;28;19929;-71
2022/09/17 13:47:08;;;;;;;;;;;14.70;83.50;;;;;;5027829;28;19933;-71
2022/09/17 13:49:35;;;;;;;;;;;14.70;83.40;;;;;;5015546;28;19964;-71
2022/09/17 13:52:04;;;;;;;;;;;14.80;83.20;;;;;;5011694;28;19933;-70
2022/09/17 13:54:38;;;;;;;;;;;14.90;83.00;;;;;;5030134;28;20351;-72
2022/09/17 13:57:09;;;;;;;;;;;14.90;82.80;;;;;;5027136;28;21217;-70
2022/09/17 13:59:36;;;;;;;;;;;15.00;82.90;;;;;;5032574;28;20349;-69
2022/09/17 14:02:26;;;;;;;;;;;15.00;81.60;;;;;;5031788;28;19940;-71
2022/09/17 14:04:55;;;;;;;;;;;15.00;81.20;;;;;;5032152;28;19969;-73
2022/09/17 14:07:32;;;;;;;;;;;15.10;80.80;;;;;;5031081;28;19929;-70
2022/09/17 14:09:59;;;;;;;;;;;15.10;80.80;;;;;;5021777;28;19959;-71
2022/09/17 14:12:46;;;;;;;;;;;15.10;80.70;;;;;;5026444;28;19944;-71
2022/09/17 14:15:35;;;;;;;;;;;15.10;80.60;;;;;;5031158;28;20038;-71
2022/09/17 14:18:03;;;;;;;;;;;15.20;80.60;;;;;;5022436;28;20439;-71
2022/09/17 14:20:32;;;;;;;;;;;15.20;81.00;;;;;;5031181;28;19975;-71
2022/09/17 14:22:59;;;;;;;;;;;15.10;80.70;;;;;;5019370;28;19983;-70
2022/09/17 14:25:29;;;;;;;;;;;15.20;80.60;;;;;;5013199;28;19937;-70
2022/09/17 14:27:57;;;;;;;;;;;15.20;81.00;;;;;;5017961;28;19983;-69
2022/09/17 14:30:26;;;;;;;;;;;15.20;80.50;;;;;;5021872;28;19924;-71